Time;durP1;ratioP1;P1;durP2;ratioP2;P2;SDS_P1;SDS_P2;PMS_P1;PMS_P2;Temp;Humidity;BMP_temperature;BMP_pressure;BME280_temperature;BME280_humidity;BME280_pressure;Samples;Min_cycle;Max_cycle;Signal;HPM_P1;HPM_P2
2023/03/06 00:02:12;;;;;;;30.70;19.40;;;;;;;-0.69;69.94;99472.89;112343;1243;23031;-75
2023/03/06 00:04:41;;;;;;;30.40;18.90;;;;;;;-0.70;70.12;99475.30;112369;1238;23674;-77
2023/03/06 00:07:10;;;;;;;32.40;18.60;;;;;;;-0.72;70.26;99474.29;112357;1238;23760;-76
2023/03/06 00:09:39;;;;;;;33.00;19.10;;;;;;;-0.77;70.09;99476.70;112014;1245;22973;-76
2023/03/06 00:12:11;;;;;;;30.50;19.80;;;;;;;-0.81;70.09;99474.50;112026;1245;22976;-76
2023/03/06 00:14:43;;;;;;;34.00;21.40;;;;;;;-0.85;70.17;99471.10;112021;1245;21955;-78
2023/03/06 00:17:11;;;;;;;36.10;21.90;;;;;;;-0.88;70.19;99467.36;111851;1240;23745;-75
2023/03/06 00:19:40;;;;;;;34.00;20.90;;;;;;;-0.91;70.33;99466.19;112595;1240;21942;-75
2023/03/06 00:22:15;;;;;;;36.80;21.80;;;;;;;-0.95;70.26;99462.97;112484;1240;21944;-75
2023/03/06 00:24:46;;;;;;;36.80;22.50;;;;;;;-0.99;70.26;99464.17;112743;1240;21951;-76
2023/03/06 00:27:16;;;;;;;;;;;;;;;-1.03;70.27;99466.77;112850;1233;23655;-76
2023/03/06 00:29:47;;;;;;;34.30;21.50;;;;;;;-1.13;70.48;99466.29;113532;1228;22158;-76
2023/03/06 00:32:20;;;;;;;30.20;21.00;;;;;;;-1.18;70.56;99467.16;113384;1233;23591;-76
2023/03/06 00:34:50;;;;;;;37.50;23.20;;;;;;;-1.20;70.58;99463.60;113307;1233;22203;-76
2023/03/06 00:37:25;;;;;;;38.60;22.20;;;;;;;-1.21;70.67;99465.65;113233;1232;23565;-75
2023/03/06 00:39:59;;;;;;;36.00;23.30;;;;;;;-1.21;70.69;99464.27;113139;1233;23567;-75
2023/03/06 00:42:38;;;;;;;39.80;22.70;;;;;;;-1.22;70.69;99457.98;113723;1233;21968;-76
2023/03/06 00:45:10;;;;;;;35.90;21.90;;;;;;;-1.24;70.65;99455.23;113298;1233;22301;-76
2023/03/06 00:47:52;;;;;;;44.20;24.70;;;;;;;-1.25;70.81;99450.47;112659;1239;23692;-76
2023/03/06 00:50:25;;;;;;;38.30;23.00;;;;;;;-1.24;70.88;99450.47;112512;1239;22149;-78
2023/03/06 00:52:55;;;;;;;39.40;24.40;;;;;;;-1.24;70.93;99450.46;112407;1239;22034;-77
2023/03/06 00:55:29;;;;;;;42.00;26.50;;;;;;;-1.26;70.98;99447.39;112523;1239;22980;-77
2023/03/06 00:58:03;;;;;;;37.80;24.40;;;;;;;-1.25;70.99;99446.71;112765;1239;22066;-76
2023/03/06 01:00:31;;;;;;;35.00;23.90;;;;;;;-1.23;71.14;99445.67;112801;1239;21957;-76
2023/03/06 01:03:09;;;;;;;35.80;23.90;;;;;;;-1.21;71.27;99443.80;112084;1244;23746;-79
2023/03/06 01:05:40;;;;;;;43.20;25.80;;;;;;;-1.18;71.22;99444.98;112329;1239;22705;-75
2023/03/06 01:08:11;;;;;;;43.60;25.20;;;;;;;-1.15;71.32;99442.73;112474;1240;22778;-77
2023/03/06 01:10:43;;;;;;;35.90;24.70;;;;;;;-1.12;71.36;99437.10;112846;1239;21947;-77
2023/03/06 01:13:24;;;;;;;41.60;25.40;;;;;;;-1.10;71.45;99437.59;112863;1239;21998;-77
2023/03/06 01:16:06;;;;;;;32.40;22.00;;;;;;;-1.07;71.41;99429.38;111941;1247;22846;-77
2023/03/06 01:18:39;;;;;;;;;;;;;;;-1.05;71.56;99423.91;111970;1247;23041;-76
2023/03/06 01:21:10;;;;;;;32.70;20.90;;;;;;;-1.08;71.76;99422.73;112279;1241;23008;-75
2023/03/06 01:23:44;;;;;;;34.30;19.80;;;;;;;-1.06;71.78;99425.63;112804;1240;21987;-75
2023/03/06 01:26:17;;;;;;;27.80;19.00;;;;;;;-1.03;71.82;99424.23;112467;1241;21956;-75
2023/03/06 01:28:49;;;;;;;30.20;18.70;;;;;;;-1.01;71.89;99419.78;112244;1245;22874;-75
2023/03/06 01:31:25;;;;;;;31.50;18.90;;;;;;;-0.99;71.79;99417.38;112016;1244;23705;-74
2023/03/06 01:34:05;;;;;;;26.80;17.80;;;;;;;-0.98;71.88;99413.11;112267;1239;22389;-75
2023/03/06 01:36:41;;;;;;;23.60;18.70;;;;;;;-0.99;71.98;99407.98;112929;1239;22119;-76
2023/03/06 01:39:12;;;;;;;26.40;19.40;;;;;;;-0.97;72.06;99404.91;113107;1239;21942;-76
2023/03/06 01:41:44;;;;;;;27.80;17.20;;;;;;;-0.96;72.01;99406.27;112823;1239;21956;-76
2023/03/06 01:44:13;;;;;;;24.60;18.00;;;;;;;-0.96;72.02;99405.23;112783;1239;23132;-74
2023/03/06 01:46:46;;;;;;;27.50;19.30;;;;;;;-0.97;72.12;99403.55;112988;1233;21941;-75
2023/03/06 01:49:31;;;;;;;29.90;21.10;;;;;;;-0.97;72.25;99402.86;112785;1239;21953;-75
2023/03/06 01:52:14;;;;;;;30.60;22.70;;;;;;;-0.98;72.30;99400.98;112805;1239;21957;-75
2023/03/06 01:54:52;;;;;;;32.20;23.70;;;;;;;-0.97;72.38;99398.93;112852;1239;21955;-76
2023/03/06 01:57:31;;;;;;;35.60;25.40;;;;;;;-0.96;72.46;99400.28;112780;1239;21978;-76
2023/03/06 02:00:13;;;;;;;41.70;27.80;;;;;;;-0.92;72.55;99401.47;112855;1239;21960;-78
2023/03/06 02:02:54;;;;;;;43.60;26.20;;;;;;;-0.91;72.44;99397.88;112663;1239;21954;-75
2023/03/06 02:05:23;;;;;;;39.50;25.50;;;;;;;-0.89;72.53;99395.64;112763;1239;23612;-76
2023/03/06 02:07:55;;;;;;;33.70;24.50;;;;;;;-0.87;72.57;99395.10;112782;1233;23021;-76
2023/03/06 02:10:23;;;;;;;37.30;23.80;;;;;;;-0.84;72.59;99388.77;113360;1233;21949;-76
2023/03/06 02:12:55;;;;;;;31.70;24.20;;;;;;;-0.84;72.61;99388.76;113384;1233;21928;-75
2023/03/06 02:15:28;;;;;;;31.00;22.50;;;;;;;-0.81;72.67;99389.26;113080;1239;22172;-75
2023/03/06 02:18:03;;;;;;;33.10;24.70;;;;;;;-0.81;72.75;99384.80;113106;1239;21950;-76
2023/03/06 02:20:47;;;;;;;32.50;22.50;;;;;;;-0.79;72.73;99383.78;112575;1239;21982;-76
2023/03/06 02:23:32;;;;;;;30.90;22.00;;;;;;;-0.78;72.73;99381.21;112769;1239;22465;-76
2023/03/06 02:26:06;;;;;;;27.80;21.30;;;;;;;-0.76;72.84;99381.71;112813;1239;21958;-77
2023/03/06 02:28:40;;;;;;;24.60;18.80;;;;;;;-0.73;72.82;99374.68;112906;1239;23645;-77
2023/03/06 02:31:28;;;;;;;27.10;19.80;;;;;;;-0.73;72.74;99369.04;112558;1241;21973;-78
2023/03/06 02:34:15;;;;;;;28.10;19.90;;;;;;;-0.73;72.87;99368.53;112204;1243;23485;-76
2023/03/06 02:37:08;;;;;;;27.60;21.30;;;;;;;-0.74;72.90;99363.57;112687;1237;22058;-77
2023/03/06 02:39:47;;;;;;;25.90;20.70;;;;;;;-0.72;73.00;99363.39;112239;1243;21963;-76
2023/03/06 02:42:27;;;;;;;24.70;20.40;;;;;;;-0.67;73.02;99367.80;111762;1249;22205;-76
2023/03/06 02:45:06;;;;;;;25.80;20.00;;;;;;;-0.64;73.08;99364.35;111458;1249;21974;-78
2023/03/06 02:47:37;;;;;;;31.70;20.70;;;;;;;-0.59;73.00;99359.36;111459;1249;21953;-75
2023/03/06 02:50:12;;;;;;;26.60;22.70;;;;;;;-0.54;73.14;99358.29;111890;1244;21958;-76
2023/03/06 02:52:46;;;;;;;27.80;23.20;;;;;;;-0.52;73.16;99357.77;112447;1239;23702;-76
2023/03/06 02:55:18;;;;;;;31.20;21.70;;;;;;;-0.51;73.14;99358.95;112857;1239;22038;-77
2023/03/06 02:57:51;;;;;;;29.40;23.40;;;;;;;-0.48;73.13;99356.54;112578;1239;21956;-76
2023/03/06 03:00:21;;;;;;;41.30;25.00;;;;;;;-0.45;73.16;99357.70;112021;1244;22790;-76
2023/03/06 03:02:52;;;;;;;28.80;23.40;;;;;;;-0.41;73.23;99355.27;110423;1244;2185696;-76
2023/03/06 03:05:22;;;;;;;27.90;23.70;;;;;;;-0.39;73.17;99349.61;112284;1244;22461;-76
2023/03/06 03:08:04;;;;;;;28.20;23.60;;;;;;;-0.38;73.16;99348.41;112730;1239;23755;-76
2023/03/06 03:10:34;;;;;;;31.20;23.10;;;;;;;-0.37;73.08;99347.02;112297;1244;22354;-76
2023/03/06 03:13:05;;;;;;;33.80;25.90;;;;;;;-0.38;72.89;99341.73;112375;1242;23037;-75
2023/03/06 03:15:36;;;;;;;26.70;23.30;;;;;;;-0.41;72.88;99344.84;112414;1242;23771;-76
2023/03/06 03:18:10;;;;;;;27.60;21.30;;;;;;;-0.43;73.09;99341.95;111850;1248;23194;-75
2023/03/06 03:20:42;;;;;;;25.70;20.40;;;;;;;-0.43;72.98;99339.73;111786;1248;23585;-75
2023/03/06 03:23:20;;;;;;;31.10;23.90;;;;;;;-0.40;73.27;99339.88;111727;1248;23139;-75
2023/03/06 03:25:54;;;;;;;34.30;25.80;;;;;;;-0.36;73.30;99332.32;111556;1249;22089;-77
2023/03/06 03:28:28;;;;;;;34.40;27.20;;;;;;;-0.33;73.22;99327.33;112106;1244;24386;-75
2023/03/06 03:31:07;;;;;;;28.20;24.10;;;;;;;-0.31;73.09;99326.30;111656;1251;22022;-76
2023/03/06 03:33:37;;;;;;;28.70;23.00;;;;;;;-0.30;73.11;99323.72;111694;1251;23033;-76
2023/03/06 03:36:09;;;;;;;32.50;25.30;;;;;;;-0.28;73.30;99321.98;111842;1246;22202;-76
2023/03/06 03:38:50;;;;;;;25.50;21.60;;;;;;;-0.26;73.15;99319.92;112022;1246;23587;-75
2023/03/06 03:41:20;;;;;;;29.20;22.90;;;;;;;-0.25;73.20;99316.31;111968;1246;23015;-76
2023/03/06 03:43:53;;;;;;;36.90;25.60;;;;;;;-0.23;73.09;99316.63;111523;1247;21998;-76
2023/03/06 03:46:31;;;;;;;35.60;23.00;;;;;;;-0.21;73.06;99312.34;112021;1242;23028;-75
2023/03/06 03:49:04;;;;;;;34.00;23.60;;;;;;;-0.21;73.17;99312.35;112069;1241;21987;-76
2023/03/06 03:51:38;;;;;;;32.50;23.40;;;;;;;-0.18;73.24;99309.41;112474;1241;23877;-78
2023/03/06 03:54:23;;;;;;;28.90;20.60;;;;;;;-0.14;73.20;99308.67;112777;1241;23022;-75
2023/03/06 03:56:58;;;;;;;29.30;21.40;;;;;;;-0.11;73.10;99308.98;112455;1240;21994;-76
2023/03/06 03:59:38;;;;;;;25.00;19.00;;;;;;;-0.08;73.24;99307.58;111760;1248;22102;-76
2023/03/06 04:02:25;;;;;;;28.00;21.10;;;;;;;-0.06;73.13;99308.91;112232;1241;21955;-76
2023/03/06 04:05:08;;;;;;;25.80;20.20;;;;;;;-0.04;73.08;99307.54;112222;1243;24297;-75
2023/03/06 04:07:43;;;;;;;28.30;20.10;;;;;;;-0.05;72.93;99303.61;112380;1243;21966;-76
2023/03/06 04:10:15;;;;;;;30.40;22.50;;;;;;;-0.06;72.74;99298.31;112290;1243;21981;-75
2023/03/06 04:12:47;;;;;;;;;;;;;;;-0.10;72.67;99290.84;112159;1243;21946;-77
2023/03/06 04:15:20;;;;;;;31.70;19.30;;;;;;;-0.20;72.91;99288.38;112527;1243;23012;-77
2023/03/06 04:17:54;;;;;;;23.10;18.10;;;;;;;-0.21;72.93;99290.44;112578;1240;21939;-78
2023/03/06 04:20:44;;;;;;;24.80;18.90;;;;;;;-0.17;73.00;99294.52;112565;1242;21975;-76
2023/03/06 04:23:23;;;;;;;27.90;18.90;;;;;;;-0.12;73.05;99297.20;112013;1240;21965;-74
2023/03/06 04:26:06;;;;;;;24.40;19.30;;;;;;;-0.08;73.03;99292.53;112519;1241;21983;-75
2023/03/06 04:28:42;;;;;;;;;;;;;;;-0.06;72.93;99283.27;112387;1241;21943;-75
2023/03/06 04:31:18;;;;;;;25.30;20.00;;;;;;;-0.12;73.01;99273.08;112499;1241;22004;-74
2023/03/06 04:33:51;;;;;;;29.20;22.80;;;;;;;-0.19;72.72;99260.84;111737;1247;21970;-76
2023/03/06 04:36:30;;;;;;;32.90;24.00;;;;;;;-0.26;72.62;99254.61;111608;1247;21953;-75
2023/03/06 04:39:06;;;;;;;46.20;28.60;;;;;;;-0.28;72.88;99250.86;111287;1252;22012;-75
2023/03/06 04:41:38;;;;;;;47.90;33.60;;;;;;;-0.29;72.84;99248.65;111554;1248;22026;-75
2023/03/06 04:44:15;;;;;;;39.60;28.00;;;;;;;-0.30;72.91;99251.73;111673;1249;21976;-74
2023/03/06 04:46:47;;;;;;;40.70;31.00;;;;;;;-0.32;72.81;99250.55;111611;1248;21984;-74
2023/03/06 04:49:26;;;;;;;44.20;30.20;;;;;;;-0.31;72.88;99248.50;111736;1248;22024;-76
2023/03/06 04:52:14;;;;;;;42.20;31.50;;;;;;;-0.31;72.94;99254.81;111396;1245;24442;-74
2023/03/06 04:54:51;;;;;;;38.00;26.30;;;;;;;-0.32;72.97;99253.63;112064;1246;24440;-75
2023/03/06 04:57:24;;;;;;;36.40;28.20;;;;;;;-0.28;73.17;99251.20;112184;1241;21955;-76
2023/03/06 05:00:00;;;;;;;32.60;25.00;;;;;;;-0.21;73.32;99250.60;112701;1241;21995;-75
2023/03/06 05:02:32;;;;;;;32.90;24.60;;;;;;;-0.22;73.03;99247.71;112923;1241;21970;-76
2023/03/06 05:05:09;;;;;;;28.40;23.30;;;;;;;-0.23;73.04;99248.41;112091;1245;22022;-77
2023/03/06 05:07:39;;;;;;;30.90;26.10;;;;;;;-0.20;73.28;99249.91;111968;1245;21962;-76
2023/03/06 05:10:18;;;;;;;32.30;24.10;;;;;;;-0.13;73.39;99244.36;112238;1239;21981;-78
2023/03/06 05:12:50;;;;;;;31.10;25.10;;;;;;;-0.10;73.18;99244.67;112852;1239;22000;-77
2023/03/06 05:15:30;;;;;;;28.80;22.90;;;;;;;-0.11;73.08;99238.18;112978;1239;22319;-77
2023/03/06 05:18:06;;;;;;;30.30;24.90;;;;;;;-0.11;73.14;99233.20;112313;1241;23722;-77
2023/03/06 05:20:40;;;;;;;30.30;25.20;;;;;;;-0.08;73.15;99235.05;112541;1242;23022;-76
2023/03/06 05:23:11;;;;;;;34.10;29.00;;;;;;;-0.05;73.22;99233.14;112463;1239;21973;-77
2023/03/06 05:25:42;;;;;;;38.20;30.80;;;;;;;-0.05;73.15;99229.55;112550;1239;23572;-78
2023/03/06 05:28:16;;;;;;;46.40;38.60;;;;;;;-0.09;73.03;99226.19;112589;1239;22308;-77
2023/03/06 05:30:56;;;;;;;46.80;40.50;;;;;;;-0.17;72.93;99224.56;111872;1241;23060;-77
2023/03/06 05:33:34;;;;;;;119.50;89.70;;;;;;;-0.26;73.01;99227.59;111826;1245;21968;-75
2023/03/06 05:36:09;;;;;;;98.30;72.00;;;;;;;-0.31;73.13;99224.73;111662;1245;23584;-75
2023/03/06 05:38:38;;;;;;;122.80;88.70;;;;;;;-0.32;73.15;99223.21;111864;1245;21976;-75
2023/03/06 05:41:14;;;;;;;125.20;90.10;;;;;;;-0.29;73.31;99220.61;112202;1245;22647;-77
2023/03/06 05:43:57;;;;;;;298.50;185.50;;;;;;;-0.29;73.36;99215.15;111822;1245;21951;-76
2023/03/06 05:46:38;;;;;;;138.80;86.70;;;;;;;-0.28;73.48;99208.45;112191;1245;22428;-76
2023/03/06 05:49:09;;;;;;;124.80;69.40;;;;;;;-0.26;73.50;99206.22;112140;1239;21994;-75
2023/03/06 05:51:38;;;;;;;84.90;47.60;;;;;;;-0.26;73.44;99205.52;112821;1240;21948;-75
2023/03/06 05:54:15;;;;;;;66.60;40.60;;;;;;;-0.29;73.37;99203.00;112863;1240;21947;-76
2023/03/06 05:56:47;;;;;;;45.40;31.10;;;;;;;-0.32;73.45;99204.24;112967;1240;21983;-76
2023/03/06 05:59:20;;;;;;;45.70;34.20;;;;;;;-0.37;73.54;99200.86;112771;1239;23693;-74
2023/03/06 06:01:51;;;;;;;51.80;35.40;;;;;;;-0.43;73.60;99197.86;113441;1232;22079;-74
2023/03/06 06:04:26;;;;;;;41.50;33.80;;;;;;;-0.51;73.69;99190.77;112880;1238;24363;-75
2023/03/06 06:07:01;;;;;;;39.80;34.30;;;;;;;-0.58;73.81;99188.62;112874;1238;23604;-76
2023/03/06 06:09:44;;;;;;;;;;;;;;;;;;;;;
2023/03/06 06:12:23;;;;;;;40.30;33.00;;;;;;;-0.68;74.21;99187.03;112885;1239;21926;-75
2023/03/06 06:14:55;;;;;;;48.30;34.60;;;;;;;-0.69;74.28;99182.26;112121;1245;22007;-75
2023/03/06 06:17:30;;;;;;;43.70;35.40;;;;;;;-0.67;74.49;99182.91;111612;1252;21966;-76
2023/03/06 06:19:59;;;;;;;46.10;35.60;;;;;;;-0.66;74.58;99181.38;111355;1251;23121;-74
2023/03/06 06:22:28;;;;;;;54.90;38.30;;;;;;;-0.66;74.73;99176.41;111783;1246;23635;-72
2023/03/06 06:24:57;;;;;;;45.00;35.40;;;;;;;-0.65;74.76;99175.55;111392;1250;22066;-78
2023/03/06 06:27:28;;;;;;;46.40;33.80;;;;;;;-0.66;74.73;99170.60;111620;1250;21985;-75
2023/03/06 06:29:57;;;;;;;40.80;33.20;;;;;;;-0.68;74.82;99173.52;111633;1248;22096;-77
2023/03/06 06:32:25;;;;;;;42.20;34.50;;;;;;;-0.68;74.86;99171.14;111737;1250;22715;-75
2023/03/06 06:34:56;;;;;;;48.40;35.60;;;;;;;-0.69;74.87;99167.90;111562;1235;22582;-75
2023/03/06 06:37:25;;;;;;;51.50;40.20;;;;;;;-0.66;75.09;99166.33;111677;1249;23104;-76
2023/03/06 06:39:56;;;;;;;54.20;39.20;;;;;;;-0.63;75.19;99167.84;111813;1245;22730;-75
2023/03/06 06:42:27;;;;;;;41.60;34.10;;;;;;;-0.63;75.15;99164.25;111875;1239;21945;-75
2023/03/06 06:45:10;;;;;;;45.30;37.20;;;;;;;-0.63;75.22;99163.06;112968;1239;22968;-75
2023/03/06 06:47:39;;;;;;;55.90;40.40;;;;;;;-0.60;75.41;99159.08;112732;1238;21957;-75
2023/03/06 06:50:15;;;;;;;64.00;43.10;;;;;;;-0.53;75.46;99154.55;112776;1238;21957;-76
2023/03/06 06:52:49;;;;;;;58.90;42.40;;;;;;;-0.47;75.49;99149.88;112709;1233;22012;-75
2023/03/06 06:55:18;;;;;;;57.40;42.90;;;;;;;-0.43;75.51;99144.70;112873;1234;24149;-75
2023/03/06 06:57:47;;;;;;;56.10;44.60;;;;;;;-0.44;75.43;99145.06;112959;1238;21947;-74
2023/03/06 07:00:26;;;;;;;90.60;71.30;;;;;;;-0.44;75.61;99148.13;113147;1238;21961;-75
2023/03/06 07:03:06;;;;;;;54.10;48.20;;;;;;;-0.41;75.51;99146.21;112971;1238;22692;-75
2023/03/06 07:05:52;;;;;;;91.60;59.60;;;;;;;-0.40;75.54;99143.64;112965;1238;21955;-74
2023/03/06 07:08:27;;;;;;;59.50;47.10;;;;;;;-0.37;75.68;99140.34;113234;1238;22081;-75
2023/03/06 07:11:06;;;;;;;75.60;53.60;;;;;;;-0.34;75.68;99138.44;112896;1238;21923;-75
2023/03/06 07:13:42;;;;;;;65.50;52.00;;;;;;;-0.30;75.88;99135.83;112526;1242;23086;-77
2023/03/06 07:16:16;;;;;;;62.40;51.80;;;;;;;-0.24;75.99;99133.19;112622;1239;23033;-78
2023/03/06 07:18:45;;;;;;;60.70;48.90;;;;;;;-0.15;76.17;99133.05;112821;1239;21964;-76
2023/03/06 07:21:16;;;;;;;65.00;50.40;;;;;;;-0.08;76.07;99130.73;112848;1239;21956;-75
2023/03/06 07:23:50;;;;;;;69.10;53.90;;;;;;;-0.03;75.94;99124.34;112541;1239;21957;-75
2023/03/06 07:26:22;;;;;;;69.80;54.80;;;;;;;0.03;76.01;99121.67;112894;1239;23098;-75
2023/03/06 07:28:52;;;;;;;66.30;53.20;;;;;;;0.05;75.92;99117.38;112879;1238;21957;-75
2023/03/06 07:31:25;;;;;;;73.50;56.20;;;;;;;0.02;75.78;99116.06;113197;1233;21969;-75
2023/03/06 07:33:54;;;;;;;64.20;52.20;;;;;;;0.02;75.88;99117.94;113342;1233;22509;-76
2023/03/06 07:36:23;;;;;;;73.20;59.50;;;;;;;0.08;75.93;99120.92;113561;1224;21935;-74
2023/03/06 07:38:51;;;;;;;79.80;63.20;;;;;;;0.16;76.14;99117.21;112967;1239;22223;-74
2023/03/06 07:41:20;;;;;;;73.20;59.70;;;;;;;0.26;76.29;99114.32;113078;1239;21953;-73
2023/03/06 07:43:50;;;;;;;71.00;59.20;;;;;;;0.32;76.07;99114.05;112910;1232;21960;-75
2023/03/06 07:46:18;;;;;;;61.00;54.50;;;;;;;0.41;76.16;99114.60;112839;1239;23183;-75
2023/03/06 07:48:47;;;;;;;58.50;52.20;;;;;;;0.48;76.04;99119.27;112560;1239;21935;-75
2023/03/06 07:51:19;;;;;;;58.50;51.70;;;;;;;0.54;75.97;99119.86;113076;1239;21953;-75
2023/03/06 07:53:48;;;;;;;58.40;52.20;;;;;;;0.63;76.06;99118.34;112770;1239;21942;-76
2023/03/06 07:56:16;;;;;;;68.80;59.20;;;;;;;0.74;76.17;99118.48;113089;1233;24357;-76
2023/03/06 07:58:46;;;;;;;63.40;55.40;;;;;;;0.87;76.14;99122.20;113306;1233;21945;-76
2023/03/06 08:01:19;;;;;;;63.60;54.20;;;;;;;1.00;76.09;99123.00;113466;1232;21959;-76
2023/03/06 08:03:49;;;;;;;57.30;49.00;;;;;;;1.12;76.19;99121.56;113616;1232;22266;-75
2023/03/06 08:06:25;;;;;;;62.30;55.10;;;;;;;1.25;76.17;99122.00;113369;1232;22166;-74
2023/03/06 08:08:55;;;;;;;50.20;45.00;;;;;;;1.36;76.01;99124.55;113519;1233;21936;-76
2023/03/06 08:11:29;;;;;;;46.80;41.90;;;;;;;1.47;76.13;99123.11;113283;1232;23080;-76
2023/03/06 08:14:02;;;;;;;43.50;38.80;;;;;;;1.60;76.10;99120.98;113494;1232;21923;-75
2023/03/06 08:16:30;;;;;;;;;;;;;;;1.70;75.89;99121.77;113537;1233;22035;-75
2023/03/06 08:18:59;;;;;;;39.10;34.20;;;;;;;1.72;76.01;99120.52;113574;1233;22814;-75
2023/03/06 08:21:28;;;;;;;35.60;31.90;;;;;;;1.79;75.89;99118.66;113547;1233;21957;-75
2023/03/06 08:23:57;;;;;;;37.70;32.80;;;;;;;1.88;75.79;99116.95;113549;1233;22817;-76
2023/03/06 08:26:29;;;;;;;35.00;31.30;;;;;;;1.97;75.78;99118.80;113317;1232;22053;-75
2023/03/06 08:29:01;;;;;;;36.00;32.20;;;;;;;2.05;75.69;99118.77;113485;1232;23043;-75
2023/03/06 08:31:42;;;;;;;29.20;26.20;;;;;;;2.14;75.67;99121.14;113399;1233;23713;-73
2023/03/06 08:34:25;;;;;;;30.10;26.60;;;;;;;2.20;75.46;99128.89;112761;1238;21960;-73
2023/03/06 08:36:53;;;;;;;;;;;;;;;2.23;75.19;99125.76;113008;1238;23607;-75
2023/03/06 08:39:22;;;;;;;24.70;22.10;;;;;;;2.18;75.35;99126.20;113150;1238;21953;-75
2023/03/06 08:41:50;;;;;;;27.10;24.30;;;;;;;2.22;75.27;99127.16;112742;1238;22016;-75
2023/03/06 08:44:21;;;;;;;24.90;22.20;;;;;;;2.29;75.30;99127.32;112998;1233;21941;-74
2023/03/06 08:46:49;;;;;;;23.20;20.90;;;;;;;2.37;75.20;99128.70;113027;1238;24407;-74
2023/03/06 08:49:17;;;;;;;25.30;22.60;;;;;;;2.46;75.19;99131.75;112831;1238;21939;-75
2023/03/06 08:51:45;;;;;;;18.90;17.00;;;;;;;2.54;75.10;99136.16;112966;1232;21936;-76
2023/03/06 08:54:20;;;;;;;19.70;17.50;;;;;;;2.60;74.76;99135.84;113505;1232;22791;-76
2023/03/06 08:56:52;;;;;;;21.00;18.00;;;;;;;2.67;74.79;99135.85;113495;1233;23555;-75
2023/03/06 08:59:25;;;;;;;22.30;19.90;;;;;;;2.76;74.70;99134.10;113502;1232;21949;-75
2023/03/06 09:01:56;;;;;;;24.40;21.80;;;;;;;2.84;74.57;99136.97;113509;1232;21959;-76
2023/03/06 09:04:32;;;;;;;22.70;20.50;;;;;;;2.90;74.33;99134.40;113588;1233;23697;-76
2023/03/06 09:07:07;;;;;;;21.60;19.30;;;;;;;2.94;73.93;99140.84;112695;1240;22096;-76
2023/03/06 09:09:37;;;;;;;20.00;16.90;;;;;;;2.97;73.83;99143.84;112491;1239;23788;-77
2023/03/06 09:12:06;;;;;;;20.10;17.80;;;;;;;2.98;73.56;99144.52;112646;1239;24592;-77
2023/03/06 09:14:35;;;;;;;21.50;19.40;;;;;;;2.99;73.36;99149.13;112627;1239;21942;-81
2023/03/06 09:17:04;;;;;;;20.80;18.70;;;;;;;2.99;73.37;99145.67;112674;1239;21969;-78
2023/03/06 09:19:36;;;;;;;21.90;18.80;;;;;;;3.02;73.34;99146.30;112625;1239;21988;-77
2023/03/06 09:22:05;;;;;;;20.40;18.40;;;;;;;3.02;72.96;99150.76;113024;1239;21969;-80
2023/03/06 09:24:34;;;;;;;20.30;18.40;;;;;;;2.99;72.77;99151.36;112814;1233;21960;-77
2023/03/06 09:27:14;;;;;;;19.60;17.50;;;;;;;2.98;72.86;99150.02;113300;1232;21971;-78
2023/03/06 09:29:48;;;;;;;21.80;17.40;;;;;;;2.99;72.95;99153.42;113400;1228;23671;-78
2023/03/06 09:32:18;;;;;;;25.30;22.00;;;;;;;3.04;72.93;99155.71;112663;1239;21968;-78
2023/03/06 09:34:47;;;;;;;22.50;20.20;;;;;;;3.10;72.88;99158.80;112658;1239;21964;-78
2023/03/06 09:37:17;;;;;;;60.70;45.60;;;;;;;3.17;72.83;99159.48;113295;1230;21951;-78
2023/03/06 09:39:49;;;;;;;35.00;28.50;;;;;;;3.27;72.94;99159.21;112069;1246;22237;-78
2023/03/06 09:42:22;;;;;;;26.60;23.70;;;;;;;3.34;72.67;99156.11;112044;1246;22087;-80
2023/03/06 09:45:03;;;;;;;25.50;22.10;;;;;;;3.36;72.27;99151.95;112110;1246;22087;-78
2023/03/06 09:47:40;;;;;;;22.10;19.70;;;;;;;3.37;72.10;99154.98;111734;1251;21985;-78
2023/03/06 09:50:41;;;;;;;24.10;20.80;;;;;;;3.41;72.20;99156.59;111823;1246;21970;-78
2023/03/06 09:53:55;;;;;;;28.00;24.70;;;;;;;3.48;72.24;99154.67;111896;1246;24505;-76
2023/03/06 09:56:30;;;;;;;27.90;21.90;;;;;;;3.50;71.88;99152.73;112364;1246;23031;-77
2023/03/06 09:59:18;;;;;;;19.90;17.80;;;;;;;3.55;71.68;99151.23;112034;1246;21970;-76
2023/03/06 10:02:10;;;;;;;19.80;17.80;;;;;;;3.67;71.98;99147.61;112020;1246;23616;-77
2023/03/06 10:04:50;;;;;;;22.80;20.10;;;;;;;3.81;71.74;99150.30;112626;1239;21942;-77
2023/03/06 10:07:32;;;;;;;22.90;20.50;;;;;;;3.92;71.43;99148.44;112553;1239;23008;-78
2023/03/06 10:10:08;;;;;;;21.50;19.20;;;;;;;4.00;71.00;99148.37;112812;1239;21899;-77
2023/03/06 10:12:49;;;;;;;25.20;19.60;;;;;;;4.07;70.74;99143.52;112814;1238;24272;-78
2023/03/06 10:15:36;;;;;;;19.40;16.90;;;;;;;4.17;70.60;99142.17;112829;1239;21969;-76
2023/03/06 10:18:13;;;;;;;20.20;16.80;;;;;;;4.23;70.17;99140.24;112888;1239;22963;-77
2023/03/06 10:20:54;;;;;;;27.40;21.10;;;;;;;4.28;70.00;99141.64;112876;1239;21983;-78
2023/03/06 10:23:51;;;;;;;24.10;19.50;;;;;;;4.35;69.66;99138.17;113191;1239;21965;-77
2023/03/06 10:26:34;;;;;;;22.30;17.30;;;;;;;4.39;69.41;99137.17;113547;1232;21938;-78
2023/03/06 10:29:13;;;;;;;22.20;18.60;;;;;;;4.41;69.02;99141.05;113701;1232;22287;-79
2023/03/06 10:31:54;;;;;;;23.00;18.50;;;;;;;4.43;68.82;99140.48;113658;1233;22001;-80
2023/03/06 10:34:35;;;;;;;22.00;17.60;;;;;;;4.43;68.53;99142.39;113630;1232;21946;-80
2023/03/06 10:37:21;;;;;;;20.20;17.10;;;;;;;4.45;68.36;99141.29;113399;1233;21961;-81
2023/03/06 10:40:14;;;;;;;15.50;13.90;;;;;;;4.47;68.22;99142.09;113956;1233;21994;-79
2023/03/06 10:42:44;;;;;;;24.00;18.90;;;;;;;4.50;68.16;99138.90;113631;1233;21969;-79
2023/03/06 10:45:20;;;;;;;17.70;14.90;;;;;;;4.53;68.02;99139.84;113642;1232;21974;-77
2023/03/06 10:47:49;;;;;;;17.20;14.70;;;;;;;4.59;67.97;99140.65;113320;1232;21937;-78
2023/03/06 10:50:29;;;;;;;19.80;17.60;;;;;;;4.65;67.73;99141.84;113631;1233;22863;-78
2023/03/06 10:53:06;;;;;;;18.50;14.20;;;;;;;4.69;67.54;99141.20;113641;1232;22148;-79
2023/03/06 10:55:37;;;;;;;16.50;14.30;;;;;;;4.70;67.41;99139.95;113890;1232;21953;-80
2023/03/06 10:58:28;;;;;;;15.70;12.70;;;;;;;4.80;67.55;99138.59;113650;1232;21953;-80
2023/03/06 11:01:19;;;;;;;18.70;13.50;;;;;;;4.98;67.58;99138.16;114097;1232;21922;-80
2023/03/06 11:03:52;;;;;;;18.90;14.50;;;;;;;5.22;67.36;99131.46;113972;1232;21946;-77
2023/03/06 11:06:36;;;;;;;16.10;13.30;;;;;;;5.62;67.66;99132.59;113072;1239;21954;-77
2023/03/06 11:09:24;;;;;;;19.30;15.00;;;;;;;6.09;66.98;99133.65;112884;1239;23606;-77
2023/03/06 11:12:26;;;;;;;19.80;14.10;;;;;;;6.53;66.47;99131.73;112995;1239;23648;-79
2023/03/06 11:15:22;;;;;;;15.30;12.10;;;;;;;6.87;64.96;99131.34;113086;1238;21968;-80
2023/03/06 11:17:57;;;;;;;18.90;12.40;;;;;;;6.98;63.94;99125.89;113181;1239;23491;-78
2023/03/06 11:20:54;;;;;;;17.70;12.70;;;;;;;6.87;62.63;99127.89;112986;1239;21946;-79
2023/03/06 11:23:46;;;;;;;12.50;11.30;;;;;;;6.61;62.31;99125.34;113085;1239;23696;-80
2023/03/06 11:26:18;;;;;;;17.50;11.60;;;;;;;6.45;62.25;99121.70;112872;1239;24291;-75
2023/03/06 11:29:05;;;;;;;13.30;11.40;;;;;;;6.37;62.33;99119.58;113126;1239;21989;-77
2023/03/06 11:31:52;;;;;;;13.90;12.40;;;;;;;6.35;62.33;99117.27;112822;1239;21955;-77
2023/03/06 11:34:59;;;;;;;19.00;15.90;;;;;;;6.26;61.87;99114.51;112667;1239;21998;-77
2023/03/06 11:38:12;;;;;;;15.80;14.10;;;;;;;6.18;62.11;99113.27;111441;1252;21972;-77
2023/03/06 11:41:00;;;;;;;13.10;11.10;;;;;;;6.14;62.03;99112.91;111249;1252;21974;-75
2023/03/06 11:44:04;;;;;;;13.20;10.30;;;;;;;6.03;61.63;99108.64;111452;1251;22139;-78
2023/03/06 11:47:24;;;;;;;12.40;10.50;;;;;;;5.88;61.44;99106.10;111710;1252;22005;-78
2023/03/06 11:50:33;;;;;;;15.30;13.20;;;;;;;5.78;62.14;99105.79;111549;1252;22983;-78
2023/03/06 11:53:19;;;;;;;13.30;10.60;;;;;;;5.82;62.31;99106.16;111722;1252;23798;-78
2023/03/06 11:56:26;;;;;;;13.40;11.30;;;;;;;5.80;61.97;99105.21;111699;1248;21968;-77